Historyczne dane pomiarowe

Dodano dane terminowe – wersja testowa.

Dane z okresu 1951-2019

Wersja bazy: 1.34 [2019-03-16, lista zmian], aktualizacja planowana na 2019-04-15

Dane meteo z obszaru Polski uzyskane na podstawie danych udostępnionych przez Instytut Meteorologii i Gospodarki Wodnej – Państwowy Instytut Badawczy.

 

Wybierz Datę:    

       

TemperaturaWilgotnośćWiatrCiśnienieOpadyŚniegCzas trwania zjawisk
 Stacja t tx tn tng RH VA  wxwx mslp ppp RRR   cm mm wxwxwxwxwxwxwx
1999-08-14 14.7 19.3 8.8 7.6 71.5- 5.0 1.7---- 0.0------------
1999-08-13 16.0 20.3 11.8 11.1 75.3- 4.0 0.7---- 0.0------------
1999-08-12 17.1 21.2 14.2 13.4 70.0- 4.3 1.7---- 0.0------------
1999-08-11 20.2 25.3 16.1 15.5 82.5- 4.7 1.7---- 0.0------------
1999-08-10 21.0 28.7 14.3 12.1 77.0- 4.3 1.7---- 22.8------------
1999-08-09 23.2 30.9 16.6 15.0 70.8- 3.0 1.3---- 0.0------------
1999-08-08 21.8 27.9 17.0 14.8 80.8- 4.0 1.7---- 19.4------------
1999-08-07 19.7 27.9 12.2 9.7 81.0- 1.0 0.7---- 8.5------------
1999-08-06 19.0 24.7 12.7 10.1 68.8- 4.7 0.7---- 0.0------------
1999-08-05 19.0 26.3 10.7 7.9 60.8- 3.0 1.0---- 0.0------------
1999-08-04 16.7 24.5 9.3 7.6 80.0- 3.3 0.7---- 0.0------------
1999-08-03 18.3 25.1 12.6 10.8 64.5- 3.7 1.3---- 0.0------------
1999-08-02 18.9 24.2 13.9 12.9 57.8- 3.7 1.0---- 0.0------------
1999-08-01 18.9 24.4 13.7 10.1 64.5- 4.3 1.0---- 0.0------------
1999-07-31 19.0 25.2 12.7 9.1 53.0- 1.3 1.3---- 0.0------------
1999-07-30 18.2 23.9 12.0 9.6 59.8- 1.3 2.0---- 0.0------------
1999-07-29 18.0 22.8 12.7 10.5 61.8- 1.7 1.7---- 0.0------------
1999-07-28 17.2 20.3 14.3 14.6 89.8- 5.3 1.0---- 0.6------------
1999-07-27 19.4 25.9 15.2 15.5 82.8- 6.0 2.3---- 5.0------------
1999-07-26 20.9 26.6 11.7 10.1 65.8- 3.0 1.3---- 0.0------------
1999-07-25 19.0 25.3 11.3 11.6 67.5- 1.3 1.0---- 0.0------------
1999-07-24 18.5 22.8 13.3 12.6 75.3- 3.3 1.3---- 0.0------------
1999-07-23 15.7 20.0 12.1 10.1 83.0- 8.0 1.3---- 4.8------------
1999-07-22 20.7 25.4 17.9 15.0 74.3- 4.7 1.0---- 0.0------------
1999-07-21 22.3 28.4 15.1 12.6 65.3- 3.0 2.3---- 0.0------------
1999-07-20 21.7 27.9 14.2 12.1 65.5- 0.3 1.0---- 0.0------------
1999-07-19 19.7 27.1 13.3 11.6 74.8- 5.0 2.0---- 0.0------------
1999-07-18 18.4 23.7 10.8 9.1 77.0- 2.7 0.7---- 5.2------------
1999-07-17 17.2 22.6 9.8 8.1 73.3- 2.0 1.0---- 0.0------------
1999-07-16 16.1 21.0 10.4 8.6 74.0- 2.7 1.3---- 0.0------------
1999-07-15 17.1 22.3 13.2 13.6 82.3- 6.7 2.3---- 0.4------------
1999-07-14 20.0 26.3 13.7 13.1 81.0- 6.0 2.3---- 27.3------------
1999-07-13 21.0 27.9 16.1 14.1 68.3- 6.3 2.0---- 13.2------------
1999-07-12 21.8 27.9 15.2 12.6 55.0- 4.0 2.3---- 0.0------------
1999-07-11 20.5 25.9 13.7 11.6 51.5- 0.3 2.0---- 0.0------------
1999-07-10 20.5 25.1 15.7 14.4 55.8- 0.0 3.0---- 0.0------------
1999-07-09 20.8 24.9 17.0 16.8 76.5- 4.0 2.7---- 0.0------------
1999-07-08 20.5 24.5 17.2 17.0 90.0- 7.3 2.0---- 6.4------------
1999-07-07 23.0 27.8 19.6 17.5 77.3- 1.7 2.0---- 2.1------------
1999-07-06 25.2 31.3 17.9 16.0 65.8- 1.3 1.3---- 0.0------------
1999-07-05 24.5 31.1 16.2 14.6 63.0- 0.0 1.3---- 0.0------------
1999-07-04 22.5 29.1 14.1 12.1 64.8- 0.0 1.7---- 0.0------------
1999-07-03 20.4 25.7 13.4 12.1 73.0- 2.7 0.7---- 0.0------------
1999-07-02 20.1 25.1 13.3 11.9 78.0- 3.0 1.3---- 0.2------------
1999-07-01 20.6 26.1 12.4 10.2 62.3- 4.0 0.7---- 0.0------------
1999-06-30 19.1 24.4 12.3 10.3 64.5- 4.0 1.0---- 0.0------------
1999-06-29 20.0 25.0 14.5 13.3 71.0- 2.0 1.7---- 0.0------------
1999-06-28 21.3 27.9 12.4 9.5 66.8- 1.0 1.3---- 0.0------------
1999-06-27 18.7 24.9 11.3 8.6 62.3- 0.3 1.7---- 0.0------------
1999-06-26 15.3 21.6 6.6 7.9 69.3- 2.0 1.3---- 0.0------------
1999-06-25 13.9 17.8 10.8 11.1 78.8- 4.7 1.7---- 0.5------------
1999-06-24 11.8 12.8 10.3 10.1 96.0- 8.0 2.0---- 10.9------------
1999-06-23 12.6 17.3 10.3 10.6 97.3- 8.0 4.3---- 10.2------------
1999-06-22 17.7 22.2 15.1 14.6 94.0- 7.7 2.3---- 34.3------------
1999-06-21 18.6 22.6 15.7 15.0 85.8- 7.7 1.3---- 6.1------------
1999-06-20 20.0 24.2 16.1 15.0 86.0- 5.3 1.0---- 0.0------------
1999-06-19 20.3 26.2 14.2 13.1 85.5- 5.7 1.7---- 16.0------------
1999-06-18 19.3 24.2 16.9 17.0 90.0- 6.3 1.7---- 11.2------------
1999-06-17 20.1 23.9 16.3 16.5 88.0- 7.3 1.7---- 4.5------------
1999-06-16 18.8 24.3 14.7 14.6 89.8- 6.7 1.7---- 14.6------------
471.3 ms

 

Źródłem pochodzenia danych jest Instytut Meteorologii i Gospodarki Wodnej – Państwowy Instytut Badawczy. Dane Instytutu Meteorologii i Gospodarki Wodnej – Państwowego Instytutu Badawczego zostały przetworzone.

Dane źródłowe można odnaleźć na stronie https://dane.imgw.pl